createdAt,value
2017-08-16T00:04:45.724Z,99.90
2017-08-16T00:09:48.961Z,99.90
2017-08-16T00:14:52.123Z,99.90
2017-08-16T00:19:55.320Z,99.90
2017-08-16T00:24:59.273Z,99.90
2017-08-16T00:30:02.481Z,99.90
2017-08-16T00:35:05.678Z,99.90
2017-08-16T00:40:08.869Z,99.90
2017-08-16T00:45:12.823Z,99.90
2017-08-16T00:50:16.102Z,99.90
2017-08-16T00:55:19.289Z,99.90
2017-08-16T01:00:23.245Z,99.90
2017-08-16T01:05:26.438Z,99.90
2017-08-16T01:10:30.385Z,99.90
2017-08-16T01:15:33.566Z,99.90
2017-08-16T01:20:37.525Z,99.90
2017-08-16T01:25:40.732Z,99.90
2017-08-16T01:30:43.901Z,99.90
2017-08-16T01:35:47.911Z,99.90
2017-08-16T01:40:51.878Z,99.90
2017-08-16T01:45:55.081Z,99.90
2017-08-16T01:50:58.297Z,99.90
2017-08-16T01:56:01.485Z,99.90
2017-08-16T02:01:04.674Z,99.90
2017-08-16T02:06:08.618Z,99.90
2017-08-16T02:11:11.810Z,99.90
2017-08-16T02:16:15.766Z,99.90
2017-08-16T02:21:18.950Z,99.90
2017-08-16T02:26:22.118Z,99.90
2017-08-16T02:31:25.300Z,99.90
2017-08-16T02:36:28.470Z,99.90
2017-08-16T02:41:31.657Z,99.90
2017-08-16T02:46:35.610Z,99.90
2017-08-16T02:51:38.839Z,99.90
2017-08-16T02:56:42.001Z,99.90
2017-08-16T03:01:45.953Z,99.90
2017-08-16T03:06:49.108Z,99.90
2017-08-16T03:11:52.265Z,99.90
2017-08-16T03:16:55.440Z,99.90
2017-08-16T03:21:58.610Z,99.90
2017-08-16T03:27:01.835Z,99.90
2017-08-16T03:32:05.021Z,99.90
2017-08-16T03:37:08.182Z,99.90
2017-08-16T03:42:12.140Z,99.90
2017-08-16T03:47:15.295Z,99.90
2017-08-16T03:52:18.454Z,99.90
2017-08-16T03:57:21.638Z,99.90
2017-08-16T04:02:24.807Z,99.90
2017-08-16T04:07:28.049Z,99.90
2017-08-16T04:12:31.969Z,99.90
2017-08-16T04:17:35.133Z,99.90
2017-08-16T04:22:38.301Z,99.90
2017-08-16T04:27:41.478Z,99.90
2017-08-16T04:32:45.417Z,99.90
2017-08-16T04:37:48.630Z,99.90
2017-08-16T04:42:51.834Z,99.90
2017-08-16T04:47:55.010Z,99.90
2017-08-16T04:52:59.059Z,99.90
2017-08-16T04:58:02.237Z,99.90
2017-08-16T05:03:05.410Z,99.90
2017-08-16T05:08:08.585Z,99.90
2017-08-16T05:13:11.724Z,99.90
2017-08-16T05:18:14.897Z,99.90
2017-08-16T05:23:18.057Z,99.90
2017-08-16T05:28:21.239Z,99.90
2017-08-16T05:33:24.402Z,98.50
2017-08-16T05:38:28.343Z,96.60
2017-08-16T05:43:31.539Z,96.50
2017-08-16T05:48:35.475Z,96.40
2017-08-16T05:53:38.655Z,96.20
2017-08-16T05:58:42.749Z,89.30
2017-08-16T06:03:45.938Z,88.90
2017-08-16T06:08:49.121Z,92.00
2017-08-16T06:13:52.293Z,92.70
2017-08-16T06:18:55.478Z,92.60
2017-08-16T06:23:58.649Z,91.50
2017-08-16T06:29:01.822Z,93.20
2017-08-16T06:34:05.001Z,90.30
2017-08-16T06:39:08.167Z,91.10
2017-08-16T06:44:11.358Z,88.30
2017-08-16T06:49:14.533Z,85.30
2017-08-16T06:54:17.722Z,87.60
2017-08-16T06:59:20.980Z,83.80
2017-08-16T07:04:24.905Z,84.10
2017-08-16T07:09:28.079Z,84.20
2017-08-16T07:14:31.261Z,77.30
2017-08-16T07:19:34.450Z,76.80
2017-08-16T07:24:37.656Z,74.40
2017-08-16T07:29:40.864Z,71.80
2017-08-16T07:34:44.037Z,75.30
2017-08-16T07:39:48.010Z,75.90
2017-08-16T07:44:51.217Z,75.70
2017-08-16T07:49:54.397Z,74.40
2017-08-16T07:54:57.581Z,71.40
2017-08-16T08:00:01.574Z,69.00
2017-08-16T08:05:04.824Z,68.80
2017-08-16T08:10:08.770Z,66.20
2017-08-16T08:15:11.970Z,66.00
2017-08-16T08:20:15.147Z,65.00
2017-08-16T08:25:19.098Z,68.50
2017-08-16T08:30:22.268Z,68.30
2017-08-16T08:35:26.213Z,63.90
2017-08-16T08:40:29.391Z,63.70
2017-08-16T08:45:32.608Z,61.00
2017-08-16T08:50:35.825Z,58.60
2017-08-16T08:55:39.789Z,59.70
2017-08-16T09:00:42.969Z,59.70
2017-08-16T09:05:46.163Z,61.00
2017-08-16T09:10:50.106Z,56.50
2017-08-16T09:15:53.300Z,56.50
2017-08-16T09:20:57.604Z,58.50
2017-08-16T09:26:00.804Z,58.40
2017-08-16T09:31:03.985Z,59.10
2017-08-16T09:36:07.236Z,58.30
2017-08-16T09:41:10.425Z,56.80
2017-08-16T09:46:13.645Z,57.60
2017-08-16T09:51:16.831Z,57.50
2017-08-16T09:56:20.292Z,60.90
2017-08-16T10:01:24.275Z,62.40
2017-08-16T10:06:27.457Z,62.40
2017-08-16T10:11:30.690Z,61.30
2017-08-16T10:16:33.908Z,59.30
2017-08-16T10:21:37.210Z,61.60
2017-08-16T10:26:40.386Z,60.10
2017-08-16T10:31:43.596Z,58.70
2017-08-16T10:36:46.807Z,56.50
2017-08-16T10:41:50.031Z,59.00
2017-08-16T10:46:53.248Z,57.10
2017-08-16T10:51:56.459Z,57.00
2017-08-16T10:56:59.632Z,57.20
2017-08-16T11:02:02.834Z,57.90
2017-08-16T11:07:06.049Z,59.00
2017-08-16T11:12:09.248Z,57.80
2017-08-16T11:17:12.498Z,55.80
2017-08-16T11:22:16.486Z,57.30
2017-08-16T11:27:19.698Z,57.90
2017-08-16T11:32:22.902Z,57.80
2017-08-16T11:37:26.130Z,56.30
2017-08-16T11:42:29.318Z,54.80
2017-08-16T11:47:32.502Z,53.40
2017-08-16T11:52:35.694Z,52.80
2017-08-16T11:57:38.930Z,56.50
2017-08-16T12:02:42.111Z,53.00
2017-08-16T12:07:45.322Z,50.90
2017-08-16T12:12:48.511Z,53.40
2017-08-16T12:17:51.708Z,51.70
2017-08-16T12:22:55.658Z,50.30
2017-08-16T12:27:58.845Z,50.20
2017-08-16T12:33:02.056Z,50.70
2017-08-16T12:38:05.992Z,51.80
2017-08-16T12:43:09.562Z,51.80
2017-08-16T12:48:12.733Z,50.90
2017-08-16T12:53:15.923Z,49.50
2017-08-16T12:58:23.167Z,51.40
2017-08-16T13:03:26.376Z,50.30
2017-08-16T13:08:29.561Z,50.80
2017-08-16T13:13:32.786Z,51.70
2017-08-16T13:18:35.977Z,52.00
2017-08-16T13:23:39.294Z,50.90
2017-08-16T13:28:42.506Z,50.00
2017-08-16T13:33:45.789Z,46.60
2017-08-16T13:38:48.981Z,47.10
2017-08-16T13:43:52.159Z,45.40
2017-08-16T13:48:56.254Z,47.60
2017-08-16T13:53:59.474Z,47.70
2017-08-16T13:59:02.659Z,46.20
2017-08-16T14:04:05.862Z,46.90
2017-08-16T14:09:09.052Z,46.80
2017-08-16T14:14:12.262Z,48.30
2017-08-16T14:19:15.446Z,50.60
2017-08-16T14:24:18.633Z,49.20
2017-08-16T14:29:22.681Z,52.10
2017-08-16T14:34:26.628Z,52.50
2017-08-16T14:39:29.821Z,52.40
2017-08-16T14:44:33.922Z,49.60
2017-08-16T14:49:37.845Z,51.50
2017-08-16T14:54:41.778Z,48.70
2017-08-16T14:59:44.976Z,48.60
2017-08-16T15:04:48.934Z,50.90
2017-08-16T15:09:52.143Z,50.90
2017-08-16T15:14:55.413Z,50.40
2017-08-16T15:19:59.342Z,51.40
2017-08-16T15:25:03.327Z,51.40
2017-08-16T15:30:06.538Z,51.40
2017-08-16T15:35:09.769Z,53.60
2017-08-16T15:40:14.061Z,52.70
2017-08-16T15:45:17.305Z,54.90
2017-08-16T15:50:21.271Z,55.50
2017-08-16T15:55:24.756Z,55.00
2017-08-16T16:00:28.859Z,55.50
2017-08-16T16:05:33.011Z,54.70
2017-08-16T16:10:36.974Z,57.10
2017-08-16T16:15:40.196Z,57.00
2017-08-16T16:20:43.403Z,55.80
2017-08-16T16:25:46.621Z,58.20
2017-08-16T16:30:49.811Z,56.70
2017-08-16T16:35:53.037Z,58.30
2017-08-16T16:40:56.233Z,57.00
2017-08-16T16:45:59.417Z,58.00
2017-08-16T16:51:02.613Z,56.60
2017-08-16T16:56:05.822Z,58.40
2017-08-16T17:01:09.006Z,57.90
2017-08-16T17:06:12.949Z,56.80
2017-08-16T17:11:16.124Z,56.80
2017-08-16T17:16:19.334Z,56.50
2017-08-16T17:21:23.278Z,56.60
2017-08-16T17:26:26.605Z,56.60
2017-08-16T17:31:29.827Z,55.30
2017-08-16T17:36:33.057Z,57.70
2017-08-16T17:41:36.256Z,56.40
2017-08-16T17:46:41.106Z,56.90
2017-08-16T17:51:44.352Z,56.80
2017-08-16T17:56:48.396Z,58.20
2017-08-16T18:01:51.628Z,58.10
2017-08-16T18:06:54.859Z,58.40
2017-08-16T18:11:58.033Z,58.70
2017-08-16T18:17:01.246Z,60.00
2017-08-16T18:22:04.465Z,59.30
2017-08-16T18:27:07.665Z,60.00
2017-08-16T18:32:10.881Z,64.30
2017-08-16T18:37:14.096Z,69.20
2017-08-16T18:42:17.300Z,71.70
2017-08-16T18:47:20.530Z,70.10
2017-08-16T18:52:23.719Z,70.70
2017-08-16T18:57:26.926Z,70.30
2017-08-16T19:02:30.141Z,70.50
2017-08-16T19:07:33.382Z,69.80
2017-08-16T19:12:37.362Z,76.40
2017-08-16T19:17:40.553Z,75.70
2017-08-16T19:22:43.758Z,75.20
2017-08-16T19:27:46.977Z,75.30
2017-08-16T19:32:50.184Z,75.80
2017-08-16T19:37:53.377Z,74.30
2017-08-16T19:42:56.573Z,74.00
2017-08-16T19:47:59.730Z,73.00
2017-08-16T19:53:03.712Z,76.00
2017-08-16T19:58:06.936Z,75.30
2017-08-16T20:03:10.122Z,76.80
2017-08-16T20:08:13.325Z,77.00
2017-08-16T20:13:16.546Z,78.10
2017-08-16T20:18:19.827Z,78.10
2017-08-16T20:23:23.052Z,79.20
2017-08-16T20:28:26.267Z,80.80
2017-08-16T20:33:29.459Z,80.90
2017-08-16T20:38:32.669Z,81.50
2017-08-16T20:43:36.059Z,81.70
2017-08-16T20:48:39.989Z,80.30
2017-08-16T20:53:43.207Z,80.10
2017-08-16T20:58:46.413Z,81.00
2017-08-16T21:03:49.643Z,80.20
2017-08-16T21:08:52.879Z,80.10
2017-08-16T21:13:56.094Z,79.20
2017-08-16T21:18:59.272Z,78.60
2017-08-16T21:24:02.488Z,78.60
2017-08-16T21:29:05.656Z,78.70
2017-08-16T21:34:08.840Z,79.70
2017-08-16T21:39:12.049Z,80.70
2017-08-16T21:44:15.248Z,79.90
2017-08-16T21:49:19.275Z,80.70
2017-08-16T21:54:22.455Z,80.60
2017-08-16T21:59:25.634Z,81.70
2017-08-16T22:04:28.848Z,82.30
2017-08-16T22:09:32.081Z,83.40
2017-08-16T22:14:35.279Z,84.80
2017-08-16T22:19:38.480Z,86.00
2017-08-16T22:24:41.669Z,85.90
2017-08-16T22:29:44.881Z,84.50
2017-08-16T22:34:48.088Z,85.10
2017-08-16T22:39:51.285Z,85.40
2017-08-16T22:44:54.481Z,84.90
2017-08-16T22:49:57.671Z,84.40
2017-08-16T22:55:00.860Z,84.30
2017-08-16T23:00:04.796Z,82.40
2017-08-16T23:05:08.014Z,82.40
2017-08-16T23:10:11.198Z,81.50
2017-08-16T23:15:14.351Z,80.10
2017-08-16T23:20:17.807Z,79.40
2017-08-16T23:25:21.819Z,79.10
2017-08-16T23:30:24.993Z,79.10
2017-08-16T23:35:28.201Z,79.80
2017-08-16T23:40:31.471Z,80.00
2017-08-16T23:45:35.447Z,82.30
2017-08-16T23:50:38.652Z,82.30
2017-08-16T23:55:41.842Z,81.80
